createdAt,value
2022-12-11T00:01:23.084Z,100.00
2022-12-11T00:04:27.317Z,100.00
2022-12-11T00:07:32.657Z,100.00
2022-12-11T00:10:37.920Z,100.00
2022-12-11T00:13:42.127Z,100.00
2022-12-11T00:16:46.050Z,100.00
2022-12-11T00:19:49.929Z,100.00
2022-12-11T00:22:55.018Z,100.00
2022-12-11T00:25:58.920Z,100.00
2022-12-11T00:29:02.590Z,100.00
2022-12-11T00:32:06.701Z,100.00
2022-12-11T00:35:11.511Z,100.00
2022-12-11T00:38:18.638Z,100.00
2022-12-11T00:41:22.775Z,100.00
2022-12-11T00:44:26.632Z,100.00
2022-12-11T00:47:30.356Z,100.00
2022-12-11T00:50:34.192Z,100.00
2022-12-11T00:53:39.665Z,100.00
2022-12-11T00:56:44.243Z,100.00
2022-12-11T00:59:47.904Z,100.00
2022-12-11T01:02:52.205Z,100.00
2022-12-11T01:05:56.563Z,100.00
2022-12-11T01:09:19.312Z,100.00
2022-12-11T01:12:23.240Z,100.00
2022-12-11T01:15:29.542Z,100.00
2022-12-11T01:18:33.315Z,100.00
2022-12-11T01:21:37.064Z,100.00
2022-12-11T01:24:42.416Z,100.00
2022-12-11T01:27:46.098Z,100.00
2022-12-11T01:30:49.738Z,100.00
2022-12-11T01:33:55.892Z,100.00
2022-12-11T01:36:59.582Z,100.00
2022-12-11T01:40:06.410Z,100.00
2022-12-11T01:43:12.936Z,100.00
2022-12-11T01:46:16.632Z,100.00
2022-12-11T01:49:22.994Z,100.00
2022-12-11T01:52:27.205Z,100.00
2022-12-11T01:55:33.234Z,100.00
2022-12-11T01:58:43.250Z,100.00
2022-12-11T02:01:51.923Z,100.00
2022-12-11T02:04:55.516Z,100.00
2022-12-11T02:08:03.144Z,100.00
2022-12-11T02:11:14.528Z,100.00
2022-12-11T02:14:26.578Z,100.00
2022-12-11T02:17:37.870Z,100.00
2022-12-11T02:20:46.329Z,100.00
2022-12-11T02:24:08.476Z,100.00
2022-12-11T02:27:28.893Z,100.00
2022-12-11T02:30:38.501Z,100.00
2022-12-11T02:33:48.073Z,100.00
2022-12-11T02:36:55.669Z,100.00
2022-12-11T02:39:59.362Z,100.00
2022-12-11T02:43:07.261Z,100.00
2022-12-11T02:46:13.904Z,100.00
2022-12-11T02:49:19.052Z,100.00
2022-12-11T02:52:25.143Z,100.00
2022-12-11T02:55:31.276Z,100.00
2022-12-11T02:58:39.016Z,100.00
2022-12-11T03:01:44.688Z,100.00
2022-12-11T03:04:49.047Z,100.00
2022-12-11T03:07:52.868Z,100.00
2022-12-11T03:10:56.663Z,100.00
2022-12-11T03:14:03.097Z,100.00
2022-12-11T03:17:15.430Z,100.00
2022-12-11T03:20:31.023Z,100.00
2022-12-11T03:23:41.528Z,100.00
2022-12-11T03:26:56.307Z,100.00
2022-12-11T03:30:06.208Z,100.00
2022-12-11T03:33:14.955Z,100.00
2022-12-11T03:36:23.637Z,100.00
2022-12-11T03:39:32.320Z,100.00
2022-12-11T03:42:38.716Z,100.00
2022-12-11T03:45:44.039Z,100.00
2022-12-11T03:48:50.065Z,100.00
2022-12-11T03:51:57.787Z,100.00
2022-12-11T03:55:06.491Z,100.00
2022-12-11T03:58:10.457Z,100.00
2022-12-11T04:01:14.336Z,100.00
2022-12-11T04:04:19.520Z,100.00
2022-12-11T04:07:23.466Z,100.00
2022-12-11T04:10:27.164Z,100.00
2022-12-11T04:13:30.743Z,100.00
2022-12-11T04:16:33.167Z,100.00
2022-12-11T04:19:55.802Z,100.00
2022-12-11T04:23:17.197Z,100.00
2022-12-11T04:26:22.004Z,100.00
2022-12-11T04:29:25.533Z,100.00
2022-12-11T04:32:29.167Z,100.00
2022-12-11T04:35:34.345Z,100.00
2022-12-11T04:38:38.708Z,100.00
2022-12-11T04:41:42.525Z,100.00
2022-12-11T04:44:46.153Z,100.00
2022-12-11T04:47:49.710Z,100.00
2022-12-11T04:50:54.773Z,100.00
2022-12-11T04:54:00.119Z,100.00
2022-12-11T04:57:03.635Z,99.63
2022-12-11T05:00:09.876Z,99.71
2022-12-11T05:03:13.529Z,99.99
2022-12-11T05:06:18.676Z,99.61
2022-12-11T05:09:22.258Z,99.22
2022-12-11T05:12:25.831Z,99.90
2022-12-11T05:15:29.441Z,99.50
2022-12-11T05:18:33.173Z,100.00
2022-12-11T05:21:38.186Z,100.00
2022-12-11T05:24:41.827Z,100.00
2022-12-11T05:27:45.754Z,100.00
2022-12-11T05:30:49.286Z,100.00
2022-12-11T05:33:53.650Z,100.00
2022-12-11T05:36:58.709Z,100.00
2022-12-11T05:40:02.554Z,100.00
2022-12-11T05:43:06.048Z,100.00
2022-12-11T05:46:11.836Z,100.00
2022-12-11T05:49:19.652Z,100.00
2022-12-11T05:52:24.973Z,100.00
2022-12-11T05:55:28.461Z,100.00
2022-12-11T05:58:32.757Z,100.00
2022-12-11T06:01:38.273Z,100.00
2022-12-11T06:04:41.955Z,100.00
2022-12-11T06:07:47.161Z,100.00
2022-12-11T06:10:52.117Z,100.00
2022-12-11T06:13:56.726Z,100.00
2022-12-11T06:17:00.429Z,100.00
2022-12-11T06:20:04.315Z,100.00
2022-12-11T06:23:09.755Z,100.00
2022-12-11T06:26:14.064Z,100.00
2022-12-11T06:29:18.349Z,100.00
2022-12-11T06:32:22.149Z,100.00
2022-12-11T06:35:25.822Z,100.00
2022-12-11T06:38:31.177Z,100.00
2022-12-11T06:41:35.095Z,100.00
2022-12-11T06:44:38.938Z,100.00
2022-12-11T06:47:42.816Z,100.00
2022-12-11T06:50:46.598Z,100.00
2022-12-11T06:53:54.903Z,100.00
2022-12-11T06:56:58.608Z,100.00
2022-12-11T07:00:02.565Z,100.00
2022-12-11T07:03:06.795Z,100.00
2022-12-11T07:06:10.744Z,100.00
2022-12-11T07:09:16.058Z,99.99
2022-12-11T07:12:19.909Z,100.00
2022-12-11T07:15:23.648Z,99.55
2022-12-11T07:18:27.896Z,100.00
2022-12-11T07:21:31.718Z,98.48
2022-12-11T07:24:37.159Z,99.70
2022-12-11T07:27:41.804Z,100.00
2022-12-11T07:30:45.849Z,100.00
2022-12-11T07:33:49.684Z,99.75
2022-12-11T07:36:53.609Z,99.56
2022-12-11T07:39:59.035Z,98.29
2022-12-11T07:43:02.926Z,98.29
2022-12-11T07:46:09.603Z,99.51
2022-12-11T07:49:13.755Z,100.00
2022-12-11T07:52:17.856Z,98.89
2022-12-11T07:55:25.589Z,98.47
2022-12-11T07:58:29.844Z,97.62
2022-12-11T08:01:36.708Z,96.67
2022-12-11T08:04:40.936Z,96.87
2022-12-11T08:07:44.774Z,96.22
2022-12-11T08:10:50.130Z,94.95
2022-12-11T08:13:54.096Z,93.88
2022-12-11T08:16:58.364Z,94.03
2022-12-11T08:20:02.150Z,93.81
2022-12-11T08:23:06.098Z,94.56
2022-12-11T08:26:13.152Z,93.59
2022-12-11T08:29:16.889Z,94.31
2022-12-11T08:32:20.829Z,93.07
2022-12-11T08:35:27.416Z,92.98
2022-12-11T08:38:31.797Z,92.75
2022-12-11T08:41:37.656Z,91.92
2022-12-11T08:44:41.489Z,90.78
2022-12-11T08:47:45.416Z,90.09
2022-12-11T08:50:49.336Z,89.64
2022-12-11T08:53:56.169Z,90.29
2022-12-11T08:57:01.480Z,89.46
2022-12-11T09:00:06.210Z,89.00
2022-12-11T09:03:12.979Z,88.33
2022-12-11T09:06:19.684Z,84.93
2022-12-11T09:09:23.552Z,84.50
2022-12-11T09:12:29.190Z,83.39
2022-12-11T09:15:33.058Z,83.36
2022-12-11T09:18:37.010Z,83.30
2022-12-11T09:21:40.841Z,84.07
2022-12-11T09:24:44.749Z,84.40
2022-12-11T09:27:50.069Z,84.57
2022-12-11T09:30:54.260Z,84.15
2022-12-11T09:34:02.900Z,84.19
2022-12-11T09:37:06.811Z,84.11
2022-12-11T09:40:12.812Z,83.34
2022-12-11T09:43:29.656Z,83.29
2022-12-11T09:46:34.807Z,83.27
2022-12-11T09:49:43.016Z,82.16
2022-12-11T09:53:08.657Z,81.21
2022-12-11T09:56:19.390Z,80.72
2022-12-11T09:59:32.074Z,80.59
2022-12-11T10:02:48.447Z,80.20
2022-12-11T10:06:04.772Z,79.94
2022-12-11T10:09:21.130Z,74.38
2022-12-11T10:12:38.528Z,75.56
2022-12-11T10:15:50.961Z,77.22
2022-12-11T10:18:55.536Z,76.77
2022-12-11T10:22:01.289Z,77.43
2022-12-11T10:25:11.650Z,77.29
2022-12-11T10:28:17.757Z,77.69
2022-12-11T10:31:33.938Z,78.01
2022-12-11T10:34:41.790Z,77.34
2022-12-11T10:37:45.751Z,77.63
2022-12-11T10:40:52.663Z,77.94
2022-12-11T10:43:56.534Z,77.62
2022-12-11T10:47:07.836Z,76.15
2022-12-11T10:50:25.260Z,73.82
2022-12-11T10:53:30.717Z,74.13
2022-12-11T10:56:37.565Z,74.67
2022-12-11T10:59:47.629Z,74.37
2022-12-11T11:02:52.939Z,74.86
2022-12-11T11:06:05.176Z,75.05
2022-12-11T11:09:30.618Z,74.30
2022-12-11T11:12:41.216Z,74.32
2022-12-11T11:15:45.232Z,74.66
2022-12-11T11:18:56.797Z,74.57
2022-12-11T11:22:07.031Z,74.20
2022-12-11T11:25:20.396Z,74.75
2022-12-11T11:28:27.896Z,74.31
2022-12-11T11:31:36.467Z,74.17
2022-12-11T11:34:41.736Z,73.86
2022-12-11T11:37:48.743Z,73.00
2022-12-11T11:41:04.876Z,72.64
2022-12-11T11:44:17.190Z,70.56
2022-12-11T11:47:26.069Z,71.64
2022-12-11T11:50:36.956Z,72.64
2022-12-11T11:53:42.033Z,73.57
2022-12-11T11:56:46.019Z,73.43
2022-12-11T11:59:56.210Z,73.09
2022-12-11T12:03:05.019Z,74.36
2022-12-11T12:06:19.135Z,72.34
2022-12-11T12:09:35.877Z,72.51
2022-12-11T12:12:51.208Z,70.47
2022-12-11T12:15:58.591Z,71.68
2022-12-11T12:19:10.251Z,70.24
2022-12-11T12:22:33.604Z,70.52
2022-12-11T12:25:43.416Z,71.05
2022-12-11T12:28:54.140Z,71.77
2022-12-11T12:32:09.949Z,71.65
2022-12-11T12:35:24.297Z,72.12
2022-12-11T12:38:41.777Z,72.67
2022-12-11T12:41:56.377Z,72.72
2022-12-11T12:45:05.230Z,73.77
2022-12-11T12:48:10.769Z,73.36
2022-12-11T12:51:16.355Z,73.88
2022-12-11T12:54:23.169Z,74.54
2022-12-11T12:57:26.997Z,75.59
2022-12-11T13:00:37.084Z,75.89
2022-12-11T13:03:52.634Z,77.02
2022-12-11T13:06:57.150Z,78.65
2022-12-11T13:10:06.836Z,78.03
2022-12-11T13:13:33.609Z,78.94
2022-12-11T13:16:39.909Z,79.66
2022-12-11T13:19:43.910Z,79.60
2022-12-11T13:22:55.319Z,80.30
2022-12-11T13:26:02.616Z,80.63
2022-12-11T13:29:06.931Z,80.70
2022-12-11T13:32:25.697Z,79.80
2022-12-11T13:35:29.851Z,80.13
2022-12-11T13:38:34.189Z,80.52
2022-12-11T13:41:40.509Z,81.03
2022-12-11T13:44:48.880Z,81.04
2022-12-11T13:47:52.852Z,81.14
2022-12-11T13:50:59.131Z,82.29
2022-12-11T13:54:17.500Z,81.52
2022-12-11T13:57:26.049Z,82.20
2022-12-11T14:00:33.037Z,80.71
2022-12-11T14:03:37.495Z,78.98
2022-12-11T14:06:41.875Z,79.49
2022-12-11T14:09:47.424Z,78.63
2022-12-11T14:12:58.155Z,77.32
2022-12-11T14:16:02.787Z,78.18
2022-12-11T14:19:10.096Z,77.97
2022-12-11T14:22:20.975Z,73.89
2022-12-11T14:25:27.430Z,70.30
2022-12-11T14:28:40.368Z,68.69
2022-12-11T14:31:45.988Z,68.00
2022-12-11T14:34:51.689Z,69.13
2022-12-11T14:37:57.196Z,70.87
2022-12-11T14:41:05.317Z,66.68
2022-12-11T14:44:16.536Z,65.32
2022-12-11T14:47:24.011Z,64.16
2022-12-11T14:50:31.569Z,62.72
2022-12-11T14:53:39.836Z,62.27
2022-12-11T14:56:47.893Z,62.42
2022-12-11T14:59:55.729Z,61.47
2022-12-11T15:03:01.673Z,60.31
2022-12-11T15:06:24.416Z,59.87
2022-12-11T15:09:31.119Z,58.00
2022-12-11T15:12:35.758Z,59.33
2022-12-11T15:15:47.748Z,59.32
2022-12-11T15:18:53.892Z,58.92
2022-12-11T15:22:04.536Z,59.11
2022-12-11T15:25:19.150Z,59.58
2022-12-11T15:28:30.516Z,60.18
2022-12-11T15:31:36.756Z,60.04
2022-12-11T15:34:45.812Z,60.41
2022-12-11T15:37:54.797Z,59.64
2022-12-11T15:40:59.076Z,59.37
2022-12-11T15:44:05.296Z,60.44
2022-12-11T15:47:15.637Z,60.97
2022-12-11T15:50:21.990Z,60.90
2022-12-11T15:53:25.978Z,61.49
2022-12-11T15:56:30.270Z,62.80
2022-12-11T15:59:34.571Z,62.37
2022-12-11T16:02:39.938Z,62.15
2022-12-11T16:05:44.131Z,61.44
2022-12-11T16:08:47.999Z,61.18
2022-12-11T16:11:52.210Z,60.86
2022-12-11T16:14:56.591Z,60.78
2022-12-11T16:18:07.360Z,60.74
2022-12-11T16:21:12.189Z,60.80
2022-12-11T16:24:18.110Z,61.42
2022-12-11T16:27:23.323Z,62.24
2022-12-11T16:30:28.291Z,62.48
2022-12-11T16:33:33.818Z,62.08
2022-12-11T16:36:38.255Z,62.94
2022-12-11T16:39:42.856Z,63.22
2022-12-11T16:42:47.011Z,63.55
2022-12-11T16:45:55.716Z,64.25
2022-12-11T16:49:01.109Z,65.06
2022-12-11T16:52:04.976Z,65.51
2022-12-11T16:55:10.293Z,65.66
2022-12-11T16:58:18.969Z,66.72
2022-12-11T17:01:23.005Z,66.72
2022-12-11T17:04:29.196Z,67.17
2022-12-11T17:07:33.415Z,70.84
2022-12-11T17:10:41.235Z,74.54
2022-12-11T17:13:45.894Z,77.77
2022-12-11T17:16:49.839Z,79.25
2022-12-11T17:19:55.150Z,80.39
2022-12-11T17:22:58.971Z,80.00
2022-12-11T17:26:02.956Z,80.28
2022-12-11T17:29:07.216Z,80.85
2022-12-11T17:32:11.236Z,80.57
2022-12-11T17:35:16.776Z,80.09
2022-12-11T17:38:20.543Z,80.24
2022-12-11T17:41:24.601Z,81.47
2022-12-11T17:44:30.799Z,80.43
2022-12-11T17:47:34.619Z,80.14
2022-12-11T17:50:43.255Z,78.98
2022-12-11T17:53:47.126Z,78.47
2022-12-11T17:56:50.972Z,78.02
2022-12-11T17:59:56.290Z,76.20
2022-12-11T18:03:00.242Z,75.09
2022-12-11T18:06:09.050Z,74.97
2022-12-11T18:09:12.956Z,74.74
2022-12-11T18:12:17.916Z,76.24
2022-12-11T18:15:21.968Z,77.18
2022-12-11T18:18:25.839Z,77.60
2022-12-11T18:21:33.877Z,78.96
2022-12-11T18:24:37.729Z,80.11
2022-12-11T18:27:41.810Z,81.12
2022-12-11T18:30:45.830Z,81.22
2022-12-11T18:33:50.097Z,79.54
2022-12-11T18:36:55.910Z,79.06
2022-12-11T18:40:00.413Z,79.65
2022-12-11T18:43:04.357Z,77.90
2022-12-11T18:46:09.037Z,77.48
2022-12-11T18:49:13.110Z,78.01
2022-12-11T18:52:18.591Z,79.75
2022-12-11T18:55:22.676Z,80.19
2022-12-11T18:58:26.576Z,78.67
2022-12-11T19:01:33.303Z,76.93
2022-12-11T19:04:37.975Z,77.14
2022-12-11T19:07:43.336Z,77.27
2022-12-11T19:10:48.837Z,76.61
2022-12-11T19:13:53.673Z,76.68
2022-12-11T19:16:57.715Z,75.29
2022-12-11T19:20:18.773Z,75.82
2022-12-11T19:23:27.129Z,75.43
2022-12-11T19:26:31.392Z,74.49
2022-12-11T19:29:35.292Z,74.11
2022-12-11T19:32:39.157Z,74.46
2022-12-11T19:35:43.583Z,74.87
2022-12-11T19:38:49.529Z,75.41
2022-12-11T19:41:53.475Z,75.77
2022-12-11T19:44:57.331Z,75.75
2022-12-11T19:48:01.195Z,75.85
2022-12-11T19:51:06.795Z,74.67
2022-12-11T19:54:16.403Z,73.57
2022-12-11T19:57:20.249Z,72.85
2022-12-11T20:00:24.808Z,72.84
2022-12-11T20:03:29.215Z,72.86
2022-12-11T20:06:34.636Z,72.64
2022-12-11T20:09:40.019Z,72.04
2022-12-11T20:12:43.977Z,72.13
2022-12-11T20:15:47.770Z,72.66
2022-12-11T20:18:52.197Z,72.96
2022-12-11T20:21:57.011Z,72.22
2022-12-11T20:25:02.297Z,72.18
2022-12-11T20:28:06.558Z,72.18
2022-12-11T20:31:19.569Z,71.65
2022-12-11T20:34:23.971Z,71.72
2022-12-11T20:37:29.362Z,71.62
2022-12-11T20:40:34.935Z,71.41
2022-12-11T20:43:39.717Z,72.35
2022-12-11T20:46:43.710Z,71.95
2022-12-11T20:49:47.596Z,71.45
2022-12-11T20:52:51.490Z,70.86
2022-12-11T20:55:56.831Z,70.20
2022-12-11T20:59:01.558Z,70.09
2022-12-11T21:02:05.935Z,70.23
2022-12-11T21:05:10.572Z,70.15
2022-12-11T21:08:14.987Z,68.58
2022-12-11T21:11:20.658Z,68.41
2022-12-11T21:14:26.902Z,67.35
2022-12-11T21:17:30.816Z,67.63
2022-12-11T21:20:35.145Z,67.73
2022-12-11T21:23:39.015Z,67.83
2022-12-11T21:26:44.435Z,69.33
2022-12-11T21:29:48.335Z,68.93
2022-12-11T21:32:52.156Z,69.50
2022-12-11T21:35:57.536Z,69.66
2022-12-11T21:39:02.788Z,70.20
2022-12-11T21:42:08.038Z,71.58
2022-12-11T21:48:36.569Z,71.42
2022-12-11T21:51:46.828Z,72.15
2022-12-11T21:54:51.317Z,72.98
2022-12-11T21:57:57.309Z,73.19
2022-12-11T22:01:01.233Z,74.34
2022-12-11T22:04:06.416Z,73.79
2022-12-11T22:07:10.270Z,74.18
2022-12-11T22:10:14.030Z,74.08
2022-12-11T22:13:19.388Z,73.62
2022-12-11T22:16:23.462Z,74.27
2022-12-11T22:19:32.281Z,73.67
2022-12-11T22:22:36.628Z,73.33
2022-12-11T22:25:40.796Z,74.31
2022-12-11T22:28:46.284Z,73.97
2022-12-11T22:31:50.184Z,73.75
2022-12-11T22:34:54.555Z,73.95
2022-12-11T22:37:58.505Z,73.80
2022-12-11T22:41:04.915Z,74.24
2022-12-11T22:44:15.965Z,75.25
2022-12-11T22:47:20.429Z,75.33
2022-12-11T22:50:24.334Z,74.84
2022-12-11T22:53:28.183Z,76.63
2022-12-11T22:56:32.429Z,76.89
2022-12-11T22:59:38.049Z,77.14
2022-12-11T23:02:43.215Z,78.15
2022-12-11T23:05:47.175Z,77.49
2022-12-11T23:08:51.437Z,77.85
2022-12-11T23:11:55.935Z,77.30
2022-12-11T23:15:04.243Z,76.31
2022-12-11T23:18:08.260Z,75.80
2022-12-11T23:21:13.228Z,74.96
2022-12-11T23:24:17.069Z,74.54
2022-12-11T23:27:20.956Z,74.69
2022-12-11T23:30:26.318Z,75.64
2022-12-11T23:33:30.295Z,74.79
2022-12-11T23:36:34.535Z,75.67
2022-12-11T23:39:38.496Z,76.01
2022-12-11T23:42:42.209Z,74.92
2022-12-11T23:45:48.344Z,74.83
2022-12-11T23:48:52.926Z,74.95
2022-12-11T23:51:57.017Z,75.06
2022-12-11T23:55:00.802Z,75.21
2022-12-11T23:58:04.696Z,74.99
